F/V Renaissance II — FMEW — position and weather

sailwx.info

Track history (hours):
 
Tides and Currents Weather Stations Pressure Air Temp Water Temp Dewpoint Dewpoint Depression Visibility Wind Speed Wind Dir Waves Ship Positions

F/V Renaissance II

Last reported at 2017-Jan-21 20:33 UTC. Time now 2017-Jan-21 21:32 UTC.
Position N 46°12' W 002°11'.

Length 18 m.

Type: Fishing. MMSI: 228216600.

Date/timePositionNaut miles runAvg speedWind from/ knotsBaromVisibWave heightAir tempDewpointWater temp
2017-Jan-21 20:33N 46°12' W 002°11'5 0.7
2017-Jan-21 14:28N 46°16' W 002°15'3 2.9
2017-Jan-21 13:33N 46°18' W 002°15'4 2.5
2017-Jan-21 12:06N 46°15' W 002°14'2 3.0
2017-Jan-21 11:34N 46°16' W 002°15'1 0.5
2017-Jan-21 09:32N 46°16' W 002°16'3 2.3
2017-Jan-21 08:21N 46°17' W 002°20'2 1.5
2017-Jan-21 07:11N 46°16' W 002°17'4 3.7
2017-Jan-21 06:14N 46°13' W 002°17'7 2.7
2017-Jan-21 03:27N 46°14' W 002°07'3 3.3
2017-Jan-21 02:28N 46°13' W 002°11'4 1.5
2017-Jan-20 23:32N 46°13' W 002°05'5 3.3
2017-Jan-20 22:07N 46°12' W 002°11'9 1.3
2017-Jan-20 15:19N 46°18' W 002°20'2 0.8
2017-Jan-20 12:14N 46°18' W 002°16'7 0.7
2017-Jan-20 01:13N 46°19' W 002°06'6 8.4
2017-Jan-20 00:33N 46°22' W 001°59'8 8.3
2017-Jan-19 23:33N 46°27' W 001°50'3 3.1
2017-Jan-19 22:34N 46°30' W 001°47'1 0.6
2017-Jan-19 21:33N 46°29' W 001°47'9 8.8
2017-Jan-19 20:33N 46°24' W 001°58'12 0.6
2017-Jan-18 23:24N 46°19' W 002°14'6 7.3
2017-Jan-18 22:32N 46°22' W 002°06'9 9.4
2017-Jan-18 21:33N 46°26' W 001°54'6 5.7
2017-Jan-18 20:34N 46°30' W 001°47'3 2.9
2017-Jan-18 19:34N 46°28' W 001°50'9 8.7
2017-Jan-18 18:34N 46°24' W 002°02'5 0.3
2017-Jan-18 00:31N 46°20' W 002°05'8 7.9
2017-Jan-17 23:33N 46°24' W 001°56'8 7.7
2017-Jan-17 22:34N 46°29' W 001°47'1 1.0
2017-Jan-17 21:33N 46°29' W 001°48'7 7.2
2017-Jan-17 20:33N 46°28' W 001°58'8 8.1
2017-Jan-17 19:33N 46°27' W 002°09'4 3.6
2017-Jan-17 18:31N 46°28' W 002°15'5 1.5
2017-Jan-17 15:25N 46°24' W 002°11'6 1.2
2017-Jan-17 10:29N 46°28' W 002°18'2 1.7
2017-Jan-17 09:32N 46°29' W 002°16'2 1.8
2017-Jan-17 08:33N 46°27' W 002°17'1 0.6
2017-Jan-17 06:26N 46°27' W 002°16'3 3.5
2017-Jan-17 05:33N 46°29' W 002°18'3 3.0
2017-Jan-17 04:25N 46°27' W 002°15'3 2.7
2017-Jan-17 03:29N 46°28' W 002°17'1 0.5
2017-Jan-17 00:33N 46°30' W 002°18'3 2.9
2017-Jan-16 23:21N 46°26' W 002°17'3 3.1
2017-Jan-16 22:25N 46°29' W 002°18'1 0.1
2017-Jan-16 17:25N 46°29' W 002°18'0 0.1
2017-Jan-16 14:32N 46°30' W 002°18'4 2.5
2017-Jan-16 13:09N 46°26' W 002°17'3 3.5
2017-Jan-16 12:20N 46°29' W 002°19'3 0.4
2017-Jan-16 05:10N 46°26' W 002°17'3 3.7
2017-Jan-16 04:21N 46°29' W 002°19'4 1.8
2017-Jan-16 02:24N 46°26' W 002°15'3 3.6
2017-Jan-16 01:33N 46°29' W 002°18'2 1.7
2017-Jan-16 00:16N 46°28' W 002°15'2 3.1
2017-Jan-15 23:34N 46°28' W 002°12'8 8.3
2017-Jan-15 22:33N 46°28' W 001°60'9 8.7
2017-Jan-15 21:34N 46°29' W 001°47'1 1.3
2017-Jan-15 20:34N 46°30' W 001°48'7 6.9
2017-Jan-15 19:33N 46°27' W 001°57'10 7.7
2017-Jan-15 18:19N 46°27' W 002°11'4 1.4
2017-Jan-15 15:14N 46°26' W 002°17'4 0.5
2017-Jan-15 06:18N 46°29' W 002°22'5 0.8
2017-Jan-15 00:20N 46°26' W 002°17'5 0.4
2017-Jan-14 12:29N 46°22' W 002°12'3 0.7
2017-Jan-14 08:23N 46°22' W 002°08'7 8.8
2017-Jan-14 07:34N 46°25' W 001°59'9 8.6
2017-Jan-14 06:34N 46°29' W 001°47'1 1.4
2017-Jan-14 05:34N 46°30' W 001°47'0 0.0
2017-Jan-14 04:34N 46°30' W 001°47'0 0.0
2017-Jan-14 03:34N 46°30' W 001°47'0 0.0
2017-Jan-13 23:34N 46°30' W 001°47'0 0.0
2017-Jan-13 22:34N 46°30' W 001°47'0 0.0
2017-Jan-13 21:33N 46°30' W 001°47'0 0.0
2017-Jan-13 20:33N 46°30' W 001°47'0 0.0
2017-Jan-13 19:34N 46°30' W 001°47'0 0.0
2017-Jan-13 18:34N 46°30' W 001°47'0 0.0
2017-Jan-13 17:33N 46°30' W 001°47'0 0.0
2017-Jan-13 16:34N 46°30' W 001°47'0 0.0
2017-Jan-13 15:33N 46°30' W 001°47'0 0.0
2017-Jan-13 14:34N 46°30' W 001°47'0 0.0
2017-Jan-13 13:34N 46°30' W 001°47'0 0.0
2017-Jan-13 12:34N 46°30' W 001°47'0 0.0
2017-Jan-13 11:34N 46°30' W 001°47'0 0.0
2017-Jan-13 10:34N 46°30' W 001°47'0 0.0
2017-Jan-13 09:33N 46°30' W 001°47'0 0.0
2017-Jan-13 08:33N 46°30' W 001°47'0 0.0
2017-Jan-13 07:34N 46°30' W 001°47'0 0.0
2017-Jan-13 06:34N 46°30' W 001°47'0 0.0
2017-Jan-13 05:33N 46°30' W 001°47'0 0.0
2017-Jan-13 04:34N 46°30' W 001°47'0 0.0
2017-Jan-13 03:34N 46°30' W 001°47'0 0.0
2017-Jan-13 02:34N 46°30' W 001°47'0 0.0
2017-Jan-13 01:33N 46°30' W 001°47'0 0.0
2017-Jan-13 00:33N 46°30' W 001°47'0 0.0
2017-Jan-12 23:34N 46°30' W 001°47'0 0.0
2017-Jan-12 22:34N 46°30' W 001°47'0 0.0
2017-Jan-12 21:34N 46°30' W 001°47'0 0.0
2017-Jan-12 20:33N 46°30' W 001°47'0 0.0
2017-Jan-12 19:33N 46°30' W 001°47'0 0.0
2017-Jan-12 18:33N 46°30' W 001°47'0 0.0
2017-Jan-12 17:33N 46°30' W 001°47'0 0.2
2017-Jan-12 16:33N 46°30' W 001°47'6 6.5
2017-Jan-12 15:34N 46°27' W 001°56'17 1.7
2017-Jan-12 05:33N 46°26' W 002°20'9 4.2
2017-Jan-12 03:18N 46°24' W 002°06'7 9.4
2017-Jan-12 02:33N 46°26' W 001°57'7 7.5
2017-Jan-12 01:34N 46°30' W 001°47'3 2.7
2017-Jan-12 00:34N 46°28' W 001°50'1010.0
2017-Jan-11 23:34N 46°25' W 002°04'  
Track history (hours):
 
Tides and Currents Weather Stations Pressure Air Temp Water Temp Dewpoint Dewpoint Depression Visibility Wind Speed Wind Dir Waves Ship Positions

F/V Renaissance II

Last reported at 2017-Jan-21 20:33 UTC. Time now 2017-Jan-21 21:32 UTC.
Position N 46°12' W 002°11'.

Length 18 m.

Type: Fishing. MMSI: 228216600.

Date/timePositionNaut miles runAvg speedWind from/ knotsBaromVisibWave heightAir tempDewpointWater temp
2017-Jan-21 20:33N 46°12' W 002°11'5 0.7
2017-Jan-21 14:28N 46°16' W 002°15'3 2.9
2017-Jan-21 13:33N 46°18' W 002°15'4 2.5
2017-Jan-21 12:06N 46°15' W 002°14'2 3.0
2017-Jan-21 11:34N 46°16' W 002°15'1 0.5
2017-Jan-21 09:32N 46°16' W 002°16'3 2.3
2017-Jan-21 08:21N 46°17' W 002°20'2 1.5
2017-Jan-21 07:11N 46°16' W 002°17'4 3.7
2017-Jan-21 06:14N 46°13' W 002°17'7 2.7
2017-Jan-21 03:27N 46°14' W 002°07'3 3.3
2017-Jan-21 02:28N 46°13' W 002°11'4 1.5
2017-Jan-20 23:32N 46°13' W 002°05'5 3.3
2017-Jan-20 22:07N 46°12' W 002°11'9 1.3
2017-Jan-20 15:19N 46°18' W 002°20'2 0.8
2017-Jan-20 12:14N 46°18' W 002°16'7 0.7
2017-Jan-20 01:13N 46°19' W 002°06'6 8.4
2017-Jan-20 00:33N 46°22' W 001°59'8 8.3
2017-Jan-19 23:33N 46°27' W 001°50'3 3.1
2017-Jan-19 22:34N 46°30' W 001°47'1 0.6
2017-Jan-19 21:33N 46°29' W 001°47'9 8.8
2017-Jan-19 20:33N 46°24' W 001°58'12 0.6
2017-Jan-18 23:24N 46°19' W 002°14'6 7.3
2017-Jan-18 22:32N 46°22' W 002°06'9 9.4
2017-Jan-18 21:33N 46°26' W 001°54'6 5.7
2017-Jan-18 20:34N 46°30' W 001°47'3 2.9
2017-Jan-18 19:34N 46°28' W 001°50'9 8.7
2017-Jan-18 18:34N 46°24' W 002°02'5 0.3
2017-Jan-18 00:31N 46°20' W 002°05'8 7.9
2017-Jan-17 23:33N 46°24' W 001°56'8 7.7
2017-Jan-17 22:34N 46°29' W 001°47'1 1.0
2017-Jan-17 21:33N 46°29' W 001°48'7 7.2
2017-Jan-17 20:33N 46°28' W 001°58'8 8.1
2017-Jan-17 19:33N 46°27' W 002°09'4 3.6
2017-Jan-17 18:31N 46°28' W 002°15'5 1.5
2017-Jan-17 15:25N 46°24' W 002°11'6 1.2
2017-Jan-17 10:29N 46°28' W 002°18'2 1.7
2017-Jan-17 09:32N 46°29' W 002°16'2 1.8
2017-Jan-17 08:33N 46°27' W 002°17'1 0.6
2017-Jan-17 06:26N 46°27' W 002°16'3 3.5
2017-Jan-17 05:33N 46°29' W 002°18'3 3.0
2017-Jan-17 04:25N 46°27' W 002°15'3 2.7
2017-Jan-17 03:29N 46°28' W 002°17'1 0.5
2017-Jan-17 00:33N 46°30' W 002°18'3 2.9
2017-Jan-16 23:21N 46°26' W 002°17'3 3.1
2017-Jan-16 22:25N 46°29' W 002°18'1 0.1
2017-Jan-16 17:25N 46°29' W 002°18'0 0.1
2017-Jan-16 14:32N 46°30' W 002°18'4 2.5
2017-Jan-16 13:09N 46°26' W 002°17'3 3.5
2017-Jan-16 12:20N 46°29' W 002°19'3 0.4
2017-Jan-16 05:10N 46°26' W 002°17'3 3.7
2017-Jan-16 04:21N 46°29' W 002°19'4 1.8
2017-Jan-16 02:24N 46°26' W 002°15'3 3.6
2017-Jan-16 01:33N 46°29' W 002°18'2 1.7
2017-Jan-16 00:16N 46°28' W 002°15'2 3.1
2017-Jan-15 23:34N 46°28' W 002°12'8 8.3
2017-Jan-15 22:33N 46°28' W 001°60'9 8.7
2017-Jan-15 21:34N 46°29' W 001°47'1 1.3
2017-Jan-15 20:34N 46°30' W 001°48'7 6.9
2017-Jan-15 19:33N 46°27' W 001°57'10 7.7
2017-Jan-15 18:19N 46°27' W 002°11'4 1.4
2017-Jan-15 15:14N 46°26' W 002°17'4 0.5
2017-Jan-15 06:18N 46°29' W 002°22'5 0.8
2017-Jan-15 00:20N 46°26' W 002°17'5 0.4
2017-Jan-14 12:29N 46°22' W 002°12'3 0.7
2017-Jan-14 08:23N 46°22' W 002°08'7 8.8
2017-Jan-14 07:34N 46°25' W 001°59'9 8.6
2017-Jan-14 06:34N 46°29' W 001°47'1 1.4
2017-Jan-14 05:34N 46°30' W 001°47'0 0.0
2017-Jan-14 04:34N 46°30' W 001°47'0 0.0
2017-Jan-14 03:34N 46°30' W 001°47'0 0.0
2017-Jan-13 23:34N 46°30' W 001°47'0 0.0
2017-Jan-13 22:34N 46°30' W 001°47'0 0.0
2017-Jan-13 21:33N 46°30' W 001°47'0 0.0
2017-Jan-13 20:33N 46°30' W 001°47'0 0.0
2017-Jan-13 19:34N 46°30' W 001°47'0 0.0
2017-Jan-13 18:34N 46°30' W 001°47'0 0.0
2017-Jan-13 17:33N 46°30' W 001°47'0 0.0
2017-Jan-13 16:34N 46°30' W 001°47'0 0.0
2017-Jan-13 15:33N 46°30' W 001°47'0 0.0
2017-Jan-13 14:34N 46°30' W 001°47'0 0.0
2017-Jan-13 13:34N 46°30' W 001°47'0 0.0
2017-Jan-13 12:34N 46°30' W 001°47'0 0.0
2017-Jan-13 11:34N 46°30' W 001°47'0 0.0
2017-Jan-13 10:34N 46°30' W 001°47'0 0.0
2017-Jan-13 09:33N 46°30' W 001°47'0 0.0
2017-Jan-13 08:33N 46°30' W 001°47'0 0.0
2017-Jan-13 07:34N 46°30' W 001°47'0 0.0
2017-Jan-13 06:34N 46°30' W 001°47'0 0.0
2017-Jan-13 05:33N 46°30' W 001°47'0 0.0
2017-Jan-13 04:34N 46°30' W 001°47'0 0.0
2017-Jan-13 03:34N 46°30' W 001°47'0 0.0
2017-Jan-13 02:34N 46°30' W 001°47'0 0.0
2017-Jan-13 01:33N 46°30' W 001°47'0 0.0
2017-Jan-13 00:33N 46°30' W 001°47'0 0.0
2017-Jan-12 23:34N 46°30' W 001°47'0 0.0
2017-Jan-12 22:34N 46°30' W 001°47'0 0.0
2017-Jan-12 21:34N 46°30' W 001°47'0 0.0
2017-Jan-12 20:33N 46°30' W 001°47'0 0.0
2017-Jan-12 19:33N 46°30' W 001°47'0 0.0
2017-Jan-12 18:33N 46°30' W 001°47'0 0.0
2017-Jan-12 17:33N 46°30' W 001°47'0 0.2
2017-Jan-12 16:33N 46°30' W 001°47'6 6.5
2017-Jan-12 15:34N 46°27' W 001°56'17 1.7
2017-Jan-12 05:33N 46°26' W 002°20'9 4.2
2017-Jan-12 03:18N 46°24' W 002°06'7 9.4
2017-Jan-12 02:33N 46°26' W 001°57'7 7.5
2017-Jan-12 01:34N 46°30' W 001°47'3 2.7
2017-Jan-12 00:34N 46°28' W 001°50'1010.0
2017-Jan-11 23:34N 46°25' W 002°04'  

Dump ship's entire track history